sensor_id;sensor_type;location;lat;lon;timestamp;P1;durP1;ratioP1;P2;durP2;ratioP2
828;SDS011;396;52.558;13.188;2024-03-02T00:01:14;11.40;;;6.90;;
828;SDS011;396;52.558;13.188;2024-03-02T00:03:41;11.40;;;5.60;;
828;SDS011;396;52.558;13.188;2024-03-02T00:06:08;16.70;;;6.70;;
828;SDS011;396;52.558;13.188;2024-03-02T00:08:38;14.90;;;6.80;;
828;SDS011;396;52.558;13.188;2024-03-02T00:11:05;18.53;;;5.77;;
828;SDS011;396;52.558;13.188;2024-03-02T00:13:31;13.77;;;5.47;;
828;SDS011;396;52.558;13.188;2024-03-02T00:16:00;16.80;;;6.20;;
828;SDS011;396;52.558;13.188;2024-03-02T00:18:27;14.63;;;4.90;;
828;SDS011;396;52.558;13.188;2024-03-02T00:20:57;12.23;;;6.77;;
828;SDS011;396;52.558;13.188;2024-03-02T00:23:24;12.03;;;6.50;;
828;SDS011;396;52.558;13.188;2024-03-02T00:25:55;16.07;;;6.90;;
828;SDS011;396;52.558;13.188;2024-03-02T00:28:22;10.93;;;6.73;;
828;SDS011;396;52.558;13.188;2024-03-02T00:30:57;10.40;;;5.50;;
828;SDS011;396;52.558;13.188;2024-03-02T00:33:28;11.40;;;5.40;;
828;SDS011;396;52.558;13.188;2024-03-02T00:35:58;12.30;;;5.60;;
828;SDS011;396;52.558;13.188;2024-03-02T00:38:26;14.60;;;7.30;;
828;SDS011;396;52.558;13.188;2024-03-02T00:40:54;13.30;;;6.30;;
828;SDS011;396;52.558;13.188;2024-03-02T00:46:09;9.33;;;5.10;;
828;SDS011;396;52.558;13.188;2024-03-02T00:48:41;9.70;;;4.93;;
828;SDS011;396;52.558;13.188;2024-03-02T00:51:14;6.77;;;4.27;;
828;SDS011;396;52.558;13.188;2024-03-02T00:53:41;14.83;;;5.87;;
828;SDS011;396;52.558;13.188;2024-03-02T00:56:10;14.23;;;6.30;;
828;SDS011;396;52.558;13.188;2024-03-02T00:58:38;10.13;;;6.10;;
828;SDS011;396;52.558;13.188;2024-03-02T01:01:04;13.00;;;6.30;;
828;SDS011;396;52.558;13.188;2024-03-02T01:03:32;14.40;;;5.77;;
828;SDS011;396;52.558;13.188;2024-03-02T01:05:59;15.53;;;6.47;;
828;SDS011;396;52.558;13.188;2024-03-02T01:08:25;13.33;;;5.30;;
828;SDS011;396;52.558;13.188;2024-03-02T01:10:52;9.37;;;5.90;;
828;SDS011;396;52.558;13.188;2024-03-02T01:13:21;13.23;;;5.60;;
828;SDS011;396;52.558;13.188;2024-03-02T01:15:48;17.43;;;7.20;;
828;SDS011;396;52.558;13.188;2024-03-02T01:18:15;12.50;;;6.57;;
828;SDS011;396;52.558;13.188;2024-03-02T01:20:41;12.87;;;5.70;;
828;SDS011;396;52.558;13.188;2024-03-02T01:23:07;20.23;;;6.73;;
828;SDS011;396;52.558;13.188;2024-03-02T01:25:33;13.17;;;6.17;;
828;SDS011;396;52.558;13.188;2024-03-02T01:28:00;12.00;;;5.10;;
828;SDS011;396;52.558;13.188;2024-03-02T01:30:28;9.87;;;5.57;;
828;SDS011;396;52.558;13.188;2024-03-02T01:32:55;13.30;;;6.40;;
828;SDS011;396;52.558;13.188;2024-03-02T01:35:23;10.53;;;5.07;;
828;SDS011;396;52.558;13.188;2024-03-02T01:37:50;14.43;;;6.73;;
828;SDS011;396;52.558;13.188;2024-03-02T01:40:17;11.63;;;5.80;;
828;SDS011;396;52.558;13.188;2024-03-02T01:42:44;15.10;;;5.90;;
828;SDS011;396;52.558;13.188;2024-03-02T01:45:10;9.80;;;4.50;;
828;SDS011;396;52.558;13.188;2024-03-02T01:47:38;11.47;;;7.20;;
828;SDS011;396;52.558;13.188;2024-03-02T01:50:05;14.03;;;6.80;;
828;SDS011;396;52.558;13.188;2024-03-02T01:52:34;10.70;;;4.87;;
828;SDS011;396;52.558;13.188;2024-03-02T01:55:00;13.87;;;6.37;;
828;SDS011;396;52.558;13.188;2024-03-02T01:57:28;13.20;;;7.40;;
828;SDS011;396;52.558;13.188;2024-03-02T01:59:56;11.13;;;6.10;;
828;SDS011;396;52.558;13.188;2024-03-02T02:02:22;12.47;;;5.20;;
828;SDS011;396;52.558;13.188;2024-03-02T02:04:50;8.50;;;4.70;;
828;SDS011;396;52.558;13.188;2024-03-02T02:07:17;13.20;;;6.37;;
828;SDS011;396;52.558;13.188;2024-03-02T02:09:44;12.03;;;7.20;;
828;SDS011;396;52.558;13.188;2024-03-02T02:12:11;10.63;;;5.60;;
828;SDS011;396;52.558;13.188;2024-03-02T02:14:37;14.03;;;6.53;;
828;SDS011;396;52.558;13.188;2024-03-02T02:17:05;12.90;;;7.50;;
828;SDS011;396;52.558;13.188;2024-03-02T02:19:32;10.10;;;5.53;;
828;SDS011;396;52.558;13.188;2024-03-02T02:22:00;13.83;;;5.70;;
828;SDS011;396;52.558;13.188;2024-03-02T02:24:26;12.37;;;6.20;;
828;SDS011;396;52.558;13.188;2024-03-02T02:26:53;14.20;;;5.87;;
828;SDS011;396;52.558;13.188;2024-03-02T02:29:19;12.27;;;5.40;;
828;SDS011;396;52.558;13.188;2024-03-02T02:31:46;12.50;;;6.73;;
828;SDS011;396;52.558;13.188;2024-03-02T02:34:13;16.67;;;6.70;;
828;SDS011;396;52.558;13.188;2024-03-02T02:36:40;10.87;;;6.93;;
828;SDS011;396;52.558;13.188;2024-03-02T02:39:10;13.50;;;7.07;;
828;SDS011;396;52.558;13.188;2024-03-02T02:41:40;14.37;;;7.47;;
828;SDS011;396;52.558;13.188;2024-03-02T02:44:06;10.97;;;5.33;;
828;SDS011;396;52.558;13.188;2024-03-02T02:46:33;12.50;;;6.83;;
828;SDS011;396;52.558;13.188;2024-03-02T02:48:59;19.60;;;8.07;;
828;SDS011;396;52.558;13.188;2024-03-02T02:51:26;19.03;;;7.67;;
828;SDS011;396;52.558;13.188;2024-03-02T02:53:52;14.60;;;6.10;;
828;SDS011;396;52.558;13.188;2024-03-02T02:56:20;15.40;;;6.83;;
828;SDS011;396;52.558;13.188;2024-03-02T02:58:47;16.30;;;6.37;;
828;SDS011;396;52.558;13.188;2024-03-02T03:01:14;10.37;;;6.13;;
828;SDS011;396;52.558;13.188;2024-03-02T03:03:42;18.27;;;7.20;;
828;SDS011;396;52.558;13.188;2024-03-02T03:06:08;15.37;;;6.30;;
828;SDS011;396;52.558;13.188;2024-03-02T03:08:35;14.83;;;6.30;;
828;SDS011;396;52.558;13.188;2024-03-02T03:11:02;15.27;;;7.60;;
828;SDS011;396;52.558;13.188;2024-03-02T03:13:31;14.83;;;7.50;;
828;SDS011;396;52.558;13.188;2024-03-02T03:15:57;20.10;;;7.70;;
828;SDS011;396;52.558;13.188;2024-03-02T03:18:24;16.43;;;6.93;;
828;SDS011;396;52.558;13.188;2024-03-02T03:20:51;16.40;;;7.63;;
828;SDS011;396;52.558;13.188;2024-03-02T03:23:17;18.33;;;8.20;;
828;SDS011;396;52.558;13.188;2024-03-02T03:25:44;13.40;;;6.93;;
828;SDS011;396;52.558;13.188;2024-03-02T03:28:10;11.77;;;7.23;;
828;SDS011;396;52.558;13.188;2024-03-02T03:30:38;16.97;;;8.47;;
828;SDS011;396;52.558;13.188;2024-03-02T03:33:06;16.27;;;7.67;;
828;SDS011;396;52.558;13.188;2024-03-02T03:35:32;14.60;;;7.47;;
828;SDS011;396;52.558;13.188;2024-03-02T03:37:59;14.40;;;7.70;;
828;SDS011;396;52.558;13.188;2024-03-02T03:40:27;22.37;;;8.07;;
828;SDS011;396;52.558;13.188;2024-03-02T03:42:53;11.03;;;6.07;;
828;SDS011;396;52.558;13.188;2024-03-02T03:45:21;14.97;;;8.63;;
828;SDS011;396;52.558;13.188;2024-03-02T03:47:51;12.77;;;6.93;;
828;SDS011;396;52.558;13.188;2024-03-02T03:50:18;15.17;;;7.17;;
828;SDS011;396;52.558;13.188;2024-03-02T03:52:45;15.00;;;6.73;;
828;SDS011;396;52.558;13.188;2024-03-02T03:55:11;18.37;;;8.23;;
828;SDS011;396;52.558;13.188;2024-03-02T03:57:38;17.37;;;8.63;;
828;SDS011;396;52.558;13.188;2024-03-02T04:00:05;15.23;;;8.37;;
828;SDS011;396;52.558;13.188;2024-03-02T04:02:35;17.23;;;8.93;;
828;SDS011;396;52.558;13.188;2024-03-02T04:05:03;15.40;;;8.47;;
828;SDS011;396;52.558;13.188;2024-03-02T04:07:33;14.27;;;7.10;;
828;SDS011;396;52.558;13.188;2024-03-02T04:10:05;17.43;;;8.13;;
828;SDS011;396;52.558;13.188;2024-03-02T04:12:34;14.13;;;7.53;;
828;SDS011;396;52.558;13.188;2024-03-02T04:15:01;21.13;;;7.17;;
828;SDS011;396;52.558;13.188;2024-03-02T04:17:29;15.07;;;7.67;;
828;SDS011;396;52.558;13.188;2024-03-02T04:19:57;17.33;;;8.10;;
828;SDS011;396;52.558;13.188;2024-03-02T04:22:25;19.70;;;8.37;;
828;SDS011;396;52.558;13.188;2024-03-02T04:24:52;18.07;;;7.87;;
828;SDS011;396;52.558;13.188;2024-03-02T04:27:19;14.60;;;8.70;;
828;SDS011;396;52.558;13.188;2024-03-02T04:29:45;15.00;;;7.43;;
828;SDS011;396;52.558;13.188;2024-03-02T04:32:12;13.93;;;8.73;;
828;SDS011;396;52.558;13.188;2024-03-02T04:34:39;19.43;;;8.00;;
828;SDS011;396;52.558;13.188;2024-03-02T04:37:05;14.23;;;8.30;;
828;SDS011;396;52.558;13.188;2024-03-02T04:39:34;15.80;;;7.87;;
828;SDS011;396;52.558;13.188;2024-03-02T04:42:00;13.20;;;7.30;;
828;SDS011;396;52.558;13.188;2024-03-02T04:44:27;12.33;;;6.27;;
828;SDS011;396;52.558;13.188;2024-03-02T04:46:54;20.67;;;8.30;;
828;SDS011;396;52.558;13.188;2024-03-02T04:49:21;13.87;;;7.90;;
828;SDS011;396;52.558;13.188;2024-03-02T04:51:47;17.03;;;8.60;;
828;SDS011;396;52.558;13.188;2024-03-02T04:54:14;18.23;;;8.30;;
828;SDS011;396;52.558;13.188;2024-03-02T04:56:42;12.53;;;6.37;;
828;SDS011;396;52.558;13.188;2024-03-02T04:59:14;17.30;;;8.70;;
828;SDS011;396;52.558;13.188;2024-03-02T05:01:41;29.90;;;9.23;;
828;SDS011;396;52.558;13.188;2024-03-02T05:04:07;15.20;;;7.93;;
828;SDS011;396;52.558;13.188;2024-03-02T05:06:36;12.43;;;7.60;;
828;SDS011;396;52.558;13.188;2024-03-02T05:09:03;12.27;;;7.50;;
828;SDS011;396;52.558;13.188;2024-03-02T05:11:30;15.10;;;7.10;;
828;SDS011;396;52.558;13.188;2024-03-02T05:14:25;15.50;;;8.47;;
828;SDS011;396;52.558;13.188;2024-03-02T05:16:51;14.27;;;6.90;;
828;SDS011;396;52.558;13.188;2024-03-02T05:19:18;15.40;;;8.13;;
828;SDS011;396;52.558;13.188;2024-03-02T05:21:44;14.70;;;7.70;;
828;SDS011;396;52.558;13.188;2024-03-02T05:24:11;18.80;;;9.30;;
828;SDS011;396;52.558;13.188;2024-03-02T05:26:37;18.40;;;10.27;;
828;SDS011;396;52.558;13.188;2024-03-02T05:29:04;15.60;;;7.37;;
828;SDS011;396;52.558;13.188;2024-03-02T05:31:32;14.07;;;9.20;;
828;SDS011;396;52.558;13.188;2024-03-02T05:33:58;19.47;;;7.87;;
828;SDS011;396;52.558;13.188;2024-03-02T05:36:25;17.43;;;8.77;;
828;SDS011;396;52.558;13.188;2024-03-02T05:38:52;20.90;;;8.40;;
828;SDS011;396;52.558;13.188;2024-03-02T05:41:18;15.37;;;9.20;;
828;SDS011;396;52.558;13.188;2024-03-02T05:43:45;21.33;;;8.80;;
828;SDS011;396;52.558;13.188;2024-03-02T05:46:12;14.03;;;8.00;;
828;SDS011;396;52.558;13.188;2024-03-02T05:48:40;15.13;;;7.60;;
828;SDS011;396;52.558;13.188;2024-03-02T05:51:06;19.17;;;9.30;;
828;SDS011;396;52.558;13.188;2024-03-02T05:53:33;26.03;;;9.53;;
828;SDS011;396;52.558;13.188;2024-03-02T05:56:03;15.23;;;8.00;;
828;SDS011;396;52.558;13.188;2024-03-02T05:58:30;19.67;;;8.87;;
828;SDS011;396;52.558;13.188;2024-03-02T06:01:08;17.60;;;8.80;;
828;SDS011;396;52.558;13.188;2024-03-02T06:03:34;17.57;;;9.07;;
828;SDS011;396;52.558;13.188;2024-03-02T06:06:02;12.13;;;7.93;;
828;SDS011;396;52.558;13.188;2024-03-02T06:08:30;16.33;;;8.80;;
828;SDS011;396;52.558;13.188;2024-03-02T06:10:57;20.67;;;10.20;;
828;SDS011;396;52.558;13.188;2024-03-02T06:13:23;27.17;;;10.50;;
828;SDS011;396;52.558;13.188;2024-03-02T06:15:50;26.13;;;9.77;;
828;SDS011;396;52.558;13.188;2024-03-02T06:18:17;19.20;;;9.70;;
828;SDS011;396;52.558;13.188;2024-03-02T06:20:43;17.90;;;6.77;;
828;SDS011;396;52.558;13.188;2024-03-02T06:23:11;15.40;;;7.83;;
828;SDS011;396;52.558;13.188;2024-03-02T06:25:38;21.03;;;9.23;;
828;SDS011;396;52.558;13.188;2024-03-02T06:28:05;21.77;;;9.93;;
828;SDS011;396;52.558;13.188;2024-03-02T06:30:32;24.50;;;10.80;;
828;SDS011;396;52.558;13.188;2024-03-02T06:32:59;14.73;;;8.07;;
828;SDS011;396;52.558;13.188;2024-03-02T06:35:25;15.87;;;7.37;;
828;SDS011;396;52.558;13.188;2024-03-02T06:37:52;18.97;;;8.97;;
828;SDS011;396;52.558;13.188;2024-03-02T06:40:20;20.17;;;7.87;;
828;SDS011;396;52.558;13.188;2024-03-02T06:42:47;17.83;;;9.13;;
828;SDS011;396;52.558;13.188;2024-03-02T06:45:13;15.40;;;7.73;;
828;SDS011;396;52.558;13.188;2024-03-02T06:47:40;18.70;;;8.53;;
828;SDS011;396;52.558;13.188;2024-03-02T06:50:07;17.93;;;8.50;;
828;SDS011;396;52.558;13.188;2024-03-02T06:52:34;20.70;;;9.60;;
828;SDS011;396;52.558;13.188;2024-03-02T06:55:01;15.35;;;8.52;;
828;SDS011;396;52.558;13.188;2024-03-02T06:57:30;23.67;;;9.50;;
828;SDS011;396;52.558;13.188;2024-03-02T06:59:57;14.57;;;7.53;;
828;SDS011;396;52.558;13.188;2024-03-02T07:02:24;14.53;;;8.47;;
828;SDS011;396;52.558;13.188;2024-03-02T07:04:52;17.13;;;6.80;;
828;SDS011;396;52.558;13.188;2024-03-02T07:07:18;17.07;;;8.60;;
828;SDS011;396;52.558;13.188;2024-03-02T07:09:45;19.00;;;9.40;;
828;SDS011;396;52.558;13.188;2024-03-02T07:12:11;19.00;;;9.10;;
828;SDS011;396;52.558;13.188;2024-03-02T07:14:39;16.20;;;8.90;;
828;SDS011;396;52.558;13.188;2024-03-02T07:17:49;18.87;;;7.60;;
828;SDS011;396;52.558;13.188;2024-03-02T07:20:15;12.80;;;7.60;;
828;SDS011;396;52.558;13.188;2024-03-02T07:22:42;17.37;;;10.57;;
828;SDS011;396;52.558;13.188;2024-03-02T07:25:09;24.13;;;8.77;;
828;SDS011;396;52.558;13.188;2024-03-02T07:27:35;15.57;;;7.00;;
828;SDS011;396;52.558;13.188;2024-03-02T07:30:03;15.40;;;9.20;;
828;SDS011;396;52.558;13.188;2024-03-02T07:32:30;24.37;;;9.60;;
828;SDS011;396;52.558;13.188;2024-03-02T07:34:57;23.17;;;9.77;;
828;SDS011;396;52.558;13.188;2024-03-02T07:37:24;19.03;;;9.90;;
828;SDS011;396;52.558;13.188;2024-03-02T07:39:50;18.23;;;8.13;;
828;SDS011;396;52.558;13.188;2024-03-02T07:42:17;20.67;;;8.37;;
828;SDS011;396;52.558;13.188;2024-03-02T07:44:44;18.93;;;9.10;;
828;SDS011;396;52.558;13.188;2024-03-02T07:47:12;18.40;;;9.20;;
828;SDS011;396;52.558;13.188;2024-03-02T07:49:39;14.30;;;8.03;;
828;SDS011;396;52.558;13.188;2024-03-02T07:52:06;22.03;;;10.13;;
828;SDS011;396;52.558;13.188;2024-03-02T07:54:33;20.77;;;8.93;;
828;SDS011;396;52.558;13.188;2024-03-02T07:56:59;17.60;;;9.77;;
828;SDS011;396;52.558;13.188;2024-03-02T07:59:26;19.23;;;8.23;;
828;SDS011;396;52.558;13.188;2024-03-02T08:01:53;13.90;;;7.53;;
828;SDS011;396;52.558;13.188;2024-03-02T08:04:21;17.20;;;9.30;;
828;SDS011;396;52.558;13.188;2024-03-02T08:06:48;15.60;;;8.27;;
828;SDS011;396;52.558;13.188;2024-03-02T08:09:15;17.37;;;8.10;;
828;SDS011;396;52.558;13.188;2024-03-02T08:11:41;26.67;;;10.83;;
828;SDS011;396;52.558;13.188;2024-03-02T08:14:08;22.90;;;10.77;;
828;SDS011;396;52.558;13.188;2024-03-02T08:16:34;17.57;;;9.40;;
828;SDS011;396;52.558;13.188;2024-03-02T08:19:01;18.63;;;9.80;;
828;SDS011;396;52.558;13.188;2024-03-02T08:21:29;19.10;;;9.00;;
828;SDS011;396;52.558;13.188;2024-03-02T08:23:57;21.57;;;9.50;;
828;SDS011;396;52.558;13.188;2024-03-02T08:26:24;19.70;;;7.20;;
828;SDS011;396;52.558;13.188;2024-03-02T08:28:53;14.67;;;8.77;;
828;SDS011;396;52.558;13.188;2024-03-02T08:31:20;16.40;;;7.83;;
828;SDS011;396;52.558;13.188;2024-03-02T08:33:47;14.53;;;7.97;;
828;SDS011;396;52.558;13.188;2024-03-02T08:36:13;16.40;;;8.23;;
828;SDS011;396;52.558;13.188;2024-03-02T08:38:42;17.57;;;9.20;;
828;SDS011;396;52.558;13.188;2024-03-02T08:41:09;20.20;;;8.57;;
828;SDS011;396;52.558;13.188;2024-03-02T08:43:38;17.70;;;9.97;;
828;SDS011;396;52.558;13.188;2024-03-02T08:46:05;19.57;;;10.27;;
828;SDS011;396;52.558;13.188;2024-03-02T08:48:31;24.73;;;12.50;;
828;SDS011;396;52.558;13.188;2024-03-02T08:50:58;21.93;;;10.23;;
828;SDS011;396;52.558;13.188;2024-03-02T08:53:24;17.53;;;10.57;;
828;SDS011;396;52.558;13.188;2024-03-02T08:55:52;21.70;;;10.67;;
828;SDS011;396;52.558;13.188;2024-03-02T08:58:20;30.97;;;13.87;;
828;SDS011;396;52.558;13.188;2024-03-02T09:00:47;17.27;;;9.40;;
828;SDS011;396;52.558;13.188;2024-03-02T09:03:13;26.40;;;10.80;;
828;SDS011;396;52.558;13.188;2024-03-02T09:05:41;16.80;;;9.07;;
828;SDS011;396;52.558;13.188;2024-03-02T09:08:08;19.70;;;10.30;;
828;SDS011;396;52.558;13.188;2024-03-02T09:10:34;18.30;;;9.53;;
828;SDS011;396;52.558;13.188;2024-03-02T09:13:02;22.73;;;11.60;;
828;SDS011;396;52.558;13.188;2024-03-02T09:15:29;23.90;;;9.93;;
828;SDS011;396;52.558;13.188;2024-03-02T09:17:55;25.93;;;10.97;;
828;SDS011;396;52.558;13.188;2024-03-02T09:20:21;25.13;;;11.43;;
828;SDS011;396;52.558;13.188;2024-03-02T09:22:48;17.77;;;9.13;;
828;SDS011;396;52.558;13.188;2024-03-02T09:25:15;16.27;;;9.20;;
828;SDS011;396;52.558;13.188;2024-03-02T09:27:41;25.73;;;10.90;;
828;SDS011;396;52.558;13.188;2024-03-02T09:30:10;18.17;;;9.63;;
828;SDS011;396;52.558;13.188;2024-03-02T09:32:38;20.27;;;9.07;;
828;SDS011;396;52.558;13.188;2024-03-02T09:35:05;18.30;;;9.87;;
828;SDS011;396;52.558;13.188;2024-03-02T09:37:32;22.73;;;10.83;;
828;SDS011;396;52.558;13.188;2024-03-02T09:39:59;24.27;;;10.47;;
828;SDS011;396;52.558;13.188;2024-03-02T09:42:25;17.33;;;9.30;;
828;SDS011;396;52.558;13.188;2024-03-02T09:44:52;19.93;;;10.83;;
828;SDS011;396;52.558;13.188;2024-03-02T09:47:20;20.77;;;10.17;;
828;SDS011;396;52.558;13.188;2024-03-02T09:49:47;21.33;;;9.77;;
828;SDS011;396;52.558;13.188;2024-03-02T09:52:14;22.80;;;10.60;;
828;SDS011;396;52.558;13.188;2024-03-02T09:54:41;21.60;;;10.57;;
828;SDS011;396;52.558;13.188;2024-03-02T09:57:07;17.83;;;8.80;;
828;SDS011;396;52.558;13.188;2024-03-02T09:59:34;23.60;;;10.57;;
828;SDS011;396;52.558;13.188;2024-03-02T10:02:01;24.87;;;10.57;;
828;SDS011;396;52.558;13.188;2024-03-02T10:04:30;23.73;;;11.23;;
828;SDS011;396;52.558;13.188;2024-03-02T10:07:09;22.57;;;8.97;;
828;SDS011;396;52.558;13.188;2024-03-02T10:09:37;19.73;;;10.87;;
828;SDS011;396;52.558;13.188;2024-03-02T10:12:03;13.83;;;7.90;;
828;SDS011;396;52.558;13.188;2024-03-02T10:14:31;18.73;;;8.00;;
828;SDS011;396;52.558;13.188;2024-03-02T10:17:01;21.10;;;9.90;;
828;SDS011;396;52.558;13.188;2024-03-02T10:19:30;34.93;;;9.90;;
828;SDS011;396;52.558;13.188;2024-03-02T10:22:00;20.67;;;9.83;;
828;SDS011;396;52.558;13.188;2024-03-02T10:24:28;20.33;;;9.73;;
828;SDS011;396;52.558;13.188;2024-03-02T10:27:02;19.37;;;9.30;;
828;SDS011;396;52.558;13.188;2024-03-02T10:29:35;18.70;;;8.30;;
828;SDS011;396;52.558;13.188;2024-03-02T10:32:03;20.93;;;9.07;;
828;SDS011;396;52.558;13.188;2024-03-02T10:34:33;18.80;;;9.67;;
828;SDS011;396;52.558;13.188;2024-03-02T10:36:59;22.47;;;8.83;;
828;SDS011;396;52.558;13.188;2024-03-02T10:39:26;24.50;;;9.57;;
828;SDS011;396;52.558;13.188;2024-03-02T10:41:54;15.80;;;8.17;;
828;SDS011;396;52.558;13.188;2024-03-02T10:44:22;21.40;;;9.40;;
828;SDS011;396;52.558;13.188;2024-03-02T10:46:49;15.90;;;9.00;;
828;SDS011;396;52.558;13.188;2024-03-02T10:49:16;16.90;;;8.90;;
828;SDS011;396;52.558;13.188;2024-03-02T10:51:44;18.10;;;9.00;;
828;SDS011;396;52.558;13.188;2024-03-02T10:54:11;17.17;;;9.13;;
828;SDS011;396;52.558;13.188;2024-03-02T10:56:38;13.43;;;7.80;;
828;SDS011;396;52.558;13.188;2024-03-02T10:59:06;13.17;;;7.70;;
828;SDS011;396;52.558;13.188;2024-03-02T11:01:46;16.27;;;8.90;;
828;SDS011;396;52.558;13.188;2024-03-02T11:04:15;21.93;;;7.20;;
828;SDS011;396;52.558;13.188;2024-03-02T11:06:47;19.90;;;7.90;;
828;SDS011;396;52.558;13.188;2024-03-02T11:09:16;18.93;;;8.27;;
828;SDS011;396;52.558;13.188;2024-03-02T11:11:45;15.07;;;7.07;;
828;SDS011;396;52.558;13.188;2024-03-02T11:14:26;13.63;;;6.47;;
828;SDS011;396;52.558;13.188;2024-03-02T11:16:56;14.13;;;6.53;;
828;SDS011;396;52.558;13.188;2024-03-02T11:19:24;9.87;;;5.53;;
828;SDS011;396;52.558;13.188;2024-03-02T11:21:53;15.27;;;6.67;;
828;SDS011;396;52.558;13.188;2024-03-02T11:24:32;13.83;;;6.90;;
828;SDS011;396;52.558;13.188;2024-03-02T11:27:00;17.33;;;6.80;;
828;SDS011;396;52.558;13.188;2024-03-02T11:32:13;15.93;;;7.30;;
828;SDS011;396;52.558;13.188;2024-03-02T11:34:41;14.53;;;6.80;;
828;SDS011;396;52.558;13.188;2024-03-02T11:37:11;18.33;;;6.63;;
828;SDS011;396;52.558;13.188;2024-03-02T11:39:38;17.40;;;7.17;;
828;SDS011;396;52.558;13.188;2024-03-02T11:42:06;14.87;;;6.47;;
828;SDS011;396;52.558;13.188;2024-03-02T11:44:34;13.00;;;7.00;;
828;SDS011;396;52.558;13.188;2024-03-02T11:47:02;15.20;;;6.60;;
828;SDS011;396;52.558;13.188;2024-03-02T11:49:38;10.47;;;4.93;;
828;SDS011;396;52.558;13.188;2024-03-02T11:52:06;16.23;;;7.40;;
828;SDS011;396;52.558;13.188;2024-03-02T11:54:36;13.23;;;6.27;;
828;SDS011;396;52.558;13.188;2024-03-02T11:57:04;17.07;;;6.00;;
828;SDS011;396;52.558;13.188;2024-03-02T11:59:31;14.37;;;6.00;;
828;SDS011;396;52.558;13.188;2024-03-02T12:01:59;9.37;;;4.83;;
828;SDS011;396;52.558;13.188;2024-03-02T12:04:26;13.17;;;6.03;;
828;SDS011;396;52.558;13.188;2024-03-02T12:06:54;13.30;;;6.63;;
828;SDS011;396;52.558;13.188;2024-03-02T12:09:21;13.13;;;6.63;;
828;SDS011;396;52.558;13.188;2024-03-02T12:11:49;15.63;;;6.10;;
828;SDS011;396;52.558;13.188;2024-03-02T12:14:28;14.10;;;5.47;;
828;SDS011;396;52.558;13.188;2024-03-02T12:16:55;13.87;;;7.10;;
828;SDS011;396;52.558;13.188;2024-03-02T12:19:23;8.67;;;4.90;;
828;SDS011;396;52.558;13.188;2024-03-02T12:21:50;11.90;;;6.87;;
828;SDS011;396;52.558;13.188;2024-03-02T12:24:17;16.47;;;5.60;;
828;SDS011;396;52.558;13.188;2024-03-02T12:26:43;9.73;;;4.97;;
828;SDS011;396;52.558;13.188;2024-03-02T12:29:13;9.13;;;4.80;;
828;SDS011;396;52.558;13.188;2024-03-02T12:31:41;10.00;;;5.70;;
828;SDS011;396;52.558;13.188;2024-03-02T12:34:10;10.50;;;5.33;;
828;SDS011;396;52.558;13.188;2024-03-02T12:36:38;13.33;;;7.10;;
828;SDS011;396;52.558;13.188;2024-03-02T12:39:06;12.43;;;5.97;;
828;SDS011;396;52.558;13.188;2024-03-02T12:41:35;9.83;;;5.80;;
828;SDS011;396;52.558;13.188;2024-03-02T12:44:02;12.10;;;5.73;;
828;SDS011;396;52.558;13.188;2024-03-02T12:46:30;12.47;;;4.87;;
828;SDS011;396;52.558;13.188;2024-03-02T12:48:57;12.33;;;4.10;;
828;SDS011;396;52.558;13.188;2024-03-02T12:51:24;11.20;;;5.67;;
828;SDS011;396;52.558;13.188;2024-03-02T12:53:53;13.83;;;6.27;;
828;SDS011;396;52.558;13.188;2024-03-02T12:56:20;12.47;;;5.33;;
828;SDS011;396;52.558;13.188;2024-03-02T12:58:47;9.57;;;4.87;;
828;SDS011;396;52.558;13.188;2024-03-02T13:01:14;12.63;;;5.77;;
828;SDS011;396;52.558;13.188;2024-03-02T13:03:45;10.40;;;5.50;;
828;SDS011;396;52.558;13.188;2024-03-02T13:06:14;12.30;;;5.50;;
828;SDS011;396;52.558;13.188;2024-03-02T13:08:42;11.47;;;5.27;;
828;SDS011;396;52.558;13.188;2024-03-02T13:11:09;10.80;;;5.33;;
828;SDS011;396;52.558;13.188;2024-03-02T13:13:36;12.37;;;5.37;;
828;SDS011;396;52.558;13.188;2024-03-02T13:16:04;8.00;;;4.27;;
828;SDS011;396;52.558;13.188;2024-03-02T13:18:33;9.30;;;4.10;;
828;SDS011;396;52.558;13.188;2024-03-02T13:21:01;9.07;;;5.30;;
828;SDS011;396;52.558;13.188;2024-03-02T13:23:28;10.70;;;5.20;;
828;SDS011;396;52.558;13.188;2024-03-02T13:25:55;11.50;;;5.23;;
828;SDS011;396;52.558;13.188;2024-03-02T13:28:23;15.80;;;6.00;;
828;SDS011;396;52.558;13.188;2024-03-02T13:30:49;11.33;;;5.03;;
828;SDS011;396;52.558;13.188;2024-03-02T13:33:16;16.00;;;6.40;;
828;SDS011;396;52.558;13.188;2024-03-02T13:35:47;8.97;;;4.10;;
828;SDS011;396;52.558;13.188;2024-03-02T13:38:16;10.33;;;4.27;;
828;SDS011;396;52.558;13.188;2024-03-02T13:40:42;8.43;;;4.97;;
828;SDS011;396;52.558;13.188;2024-03-02T13:43:09;12.77;;;5.20;;
828;SDS011;396;52.558;13.188;2024-03-02T13:45:36;10.73;;;5.10;;
828;SDS011;396;52.558;13.188;2024-03-02T13:48:03;8.80;;;4.40;;
828;SDS011;396;52.558;13.188;2024-03-02T13:50:30;8.10;;;4.30;;
828;SDS011;396;52.558;13.188;2024-03-02T13:52:57;8.77;;;4.67;;
828;SDS011;396;52.558;13.188;2024-03-02T13:55:25;11.20;;;4.97;;
828;SDS011;396;52.558;13.188;2024-03-02T13:57:52;7.73;;;4.13;;
828;SDS011;396;52.558;13.188;2024-03-02T14:00:18;9.10;;;4.30;;
828;SDS011;396;52.558;13.188;2024-03-02T14:02:45;11.07;;;4.97;;
828;SDS011;396;52.558;13.188;2024-03-02T14:05:14;7.10;;;4.20;;
828;SDS011;396;52.558;13.188;2024-03-02T14:07:41;7.07;;;4.30;;
828;SDS011;396;52.558;13.188;2024-03-02T14:10:08;6.90;;;3.83;;
828;SDS011;396;52.558;13.188;2024-03-02T14:12:37;10.13;;;4.30;;
828;SDS011;396;52.558;13.188;2024-03-02T14:15:04;5.40;;;3.07;;
828;SDS011;396;52.558;13.188;2024-03-02T14:17:31;7.47;;;3.90;;
828;SDS011;396;52.558;13.188;2024-03-02T14:19:58;6.43;;;3.13;;
828;SDS011;396;52.558;13.188;2024-03-02T14:22:25;7.57;;;3.50;;
828;SDS011;396;52.558;13.188;2024-03-02T14:24:51;8.83;;;3.57;;
828;SDS011;396;52.558;13.188;2024-03-02T14:27:18;9.87;;;3.30;;
828;SDS011;396;52.558;13.188;2024-03-02T14:29:47;6.60;;;3.37;;
828;SDS011;396;52.558;13.188;2024-03-02T14:32:14;7.27;;;3.50;;
828;SDS011;396;52.558;13.188;2024-03-02T14:34:40;8.53;;;4.07;;
828;SDS011;396;52.558;13.188;2024-03-02T14:37:07;7.90;;;3.60;;
828;SDS011;396;52.558;13.188;2024-03-02T14:39:34;9.40;;;3.73;;
828;SDS011;396;52.558;13.188;2024-03-02T14:42:01;10.00;;;4.00;;
828;SDS011;396;52.558;13.188;2024-03-02T14:44:28;5.17;;;3.33;;
828;SDS011;396;52.558;13.188;2024-03-02T14:46:56;9.30;;;4.30;;
828;SDS011;396;52.558;13.188;2024-03-02T14:49:23;5.30;;;3.03;;
828;SDS011;396;52.558;13.188;2024-03-02T14:51:50;9.23;;;4.10;;
828;SDS011;396;52.558;13.188;2024-03-02T14:54:17;6.87;;;3.97;;
828;SDS011;396;52.558;13.188;2024-03-02T14:56:44;12.47;;;4.20;;
828;SDS011;396;52.558;13.188;2024-03-02T14:59:10;9.33;;;4.73;;
828;SDS011;396;52.558;13.188;2024-03-02T15:01:37;6.67;;;3.30;;
828;SDS011;396;52.558;13.188;2024-03-02T15:04:05;6.97;;;3.30;;
828;SDS011;396;52.558;13.188;2024-03-02T15:06:32;8.73;;;4.30;;
828;SDS011;396;52.558;13.188;2024-03-02T15:08:59;8.67;;;3.83;;
828;SDS011;396;52.558;13.188;2024-03-02T15:11:26;6.47;;;3.17;;
828;SDS011;396;52.558;13.188;2024-03-02T15:13:53;8.50;;;3.87;;
828;SDS011;396;52.558;13.188;2024-03-02T15:16:20;6.20;;;2.77;;
828;SDS011;396;52.558;13.188;2024-03-02T15:18:46;8.90;;;4.10;;
828;SDS011;396;52.558;13.188;2024-03-02T15:21:14;11.13;;;2.60;;
828;SDS011;396;52.558;13.188;2024-03-02T15:23:41;6.07;;;2.90;;
828;SDS011;396;52.558;13.188;2024-03-02T15:26:08;8.97;;;3.33;;